Humidity-temperature Sensor

Selected Measurement Type: Relative Humidity

 
Relative Humidity [%]     6 entries per hour
Showing data from 12/10/2018 (00:00:00 Z) to 12/7/2018 (00:01:00 Z)
Previous Next [ Day | 3-Days | 7-Days ]
First Last
Prev [ Day | 3-Days | 7-Days ] Next
First Last

Start Time:     :
End Time:     :     
Time (in GMT) :00 :50 :40 :30 :20 :10
Previous Next [ Day | 3-Days | 7-Days ]
First Last
Prev [ Day | 3-Days | 7-Days ] Next
First Last


123 => good data
MM => data is determined as missing
-- => data not received/configured
Back to Top Back to Top
12/10/2018 00:00 to 23:10 77.66 78.01 77.53 74.81 74.91 73.43
12/9/2018 23:00 to 22:10 75.06 76.46 76.40 76.36 76.52 77.06
12/9/2018 22:00 to 21:10 75.64 74.97 69.75 69.75 69.38 69.80
12/9/2018 21:00 to 20:10 71.28 70.46 71.24 72.05 71.82 72.83
12/9/2018 20:00 to 19:10 73.24 73.63 72.93 70.81 71.72 71.98
12/9/2018 19:00 to 18:10 73.61 73.88 73.32 74.67 76.75 76.54
12/9/2018 18:00 to 17:10 76.40 75.61 74.34 74.09 72.77 70.97
12/9/2018 17:00 to 16:10 70.62 70.29 70.50 71.12 70.46 68.43
12/9/2018 16:00 to 15:10 67.82 67.38 66.47 67.44 64.33 67.01
12/9/2018 15:00 to 14:10 69.34 73.10 73.72 75.04 73.99 73.76
12/9/2018 14:00 to 13:10 74.38 75.82 75.57 75.88 74.54 77.04
12/9/2018 13:00 to 12:10 80.17 80.11 80.01 80.81 80.83 81.31
12/9/2018 12:00 to 11:10 80.44 80.11 77.53 76.48 75.97 76.60
12/9/2018 11:00 to 10:10 74.87 75.37 76.28 75.04 75.55 75.49
12/9/2018 10:00 to 9:10 74.85 75.64 77.55 77.29 75.94 75.39
12/9/2018 09:00 to 8:10 74.85 75.43 75.53 75.39 77.45 77.93
12/9/2018 08:00 to 7:10 78.40 77.14 76.71 75.95 74.23 72.29
12/9/2018 07:00 to 6:10 74.15 74.40 77.39 77.58 76.28 76.28
12/9/2018 06:00 to 5:10 74.21 73.06 71.88 74.40 74.17 74.67
12/9/2018 05:00 to 4:10 72.81 72.83 74.40 73.61 74.27 74.87
12/9/2018 04:00 to 3:10 74.46 74.83 74.71 72.79 73.01 73.22
12/9/2018 03:00 to 2:10 72.77 74.79 74.69 74.83 75.16 75.72
12/9/2018 02:00 to 1:10 75.49 76.67 77.04 77.04 77.74 77.74
12/9/2018 01:00 to 0:10 77.57 77.76 78.40 78.13 77.25 77.18
12/9/2018 00:00 to 23:10 76.30 75.16 74.07 73.80 74.07 75.12
12/8/2018 23:00 to 22:10 73.72 74.64 75.61 76.09 76.46 76.28
12/8/2018 22:00 to 21:10 76.23 75.70 74.65 74.19 73.12 74.44
12/8/2018 21:00 to 20:10 73.06 71.98 71.36 72.52 70.42 70.72
12/8/2018 20:00 to 19:10 70.89 70.70 69.55 69.59 70.52 71.34
12/8/2018 19:00 to 18:10 71.20 70.79 71.86 71.71 72.09 68.39
12/8/2018 18:00 to 17:10 68.31 69.59 68.89 70.25 69.57 69.05
12/8/2018 17:00 to 16:10 69.76 69.63 69.75 71.71 73.59 75.84
12/8/2018 16:00 to 15:10 73.76 72.77 73.24 71.28 70.68 70.00
12/8/2018 15:00 to 14:10 70.17 69.14 67.96 68.45 69.51 70.37
12/8/2018 14:00 to 13:10 68.95 68.66 70.17 70.00 68.68 70.17
12/8/2018 13:00 to 12:10 70.29 69.14 69.01 69.96 70.77 72.93
12/8/2018 12:00 to 11:10 70.89 69.53 67.88 68.33 69.92 67.69
12/8/2018 11:00 to 10:10 69.80 70.33 71.20 69.90 69.14 69.22
12/8/2018 10:00 to 9:10 69.09 70.17 69.05 68.91 69.73 69.42
12/8/2018 09:00 to 8:10 70.21 69.51 69.53 69.82 70.31 71.76
12/8/2018 08:00 to 7:10 71.47 70.99 69.18 70.00 69.45 70.62
12/8/2018 07:00 to 6:10 71.71 72.36 73.12 74.48 74.46 75.66
12/8/2018 06:00 to 5:10 77.10 78.01 77.70 78.21 77.45 76.54
12/8/2018 05:00 to 4:10 74.67 74.17 74.25 74.54 74.15 74.11
12/8/2018 04:00 to 3:10 74.31 74.25 74.11 72.75 72.19 71.24
12/8/2018 03:00 to 2:10 69.88 70.79 72.17 73.16 74.27 75.57
12/8/2018 02:00 to 1:10 75.33 75.72 76.38 76.01 76.30 77.10
12/8/2018 01:00 to 0:10 77.51 77.27 77.27 76.75 75.80 74.07
12/8/2018 00:00 to 23:10 73.90 73.39 71.51 71.03 70.99 69.84
12/7/2018 23:00 to 22:10 69.01 69.76 70.48 69.42 68.74 70.31
12/7/2018 22:00 to 21:10 71.65 70.99 69.71 70.64 71.39 71.39
12/7/2018 21:00 to 20:10 70.97 70.99 71.32 71.67 72.13 71.08
12/7/2018 20:00 to 19:10 71.34 71.32 71.32 72.93 73.49 74.01
12/7/2018 19:00 to 18:10 74.11 74.60 75.18 76.56 76.36 76.07
12/7/2018 18:00 to 17:10 76.81 75.84 73.16 73.02 74.05 73.53
12/7/2018 17:00 to 16:10 73.47 74.89 74.95 75.80 76.34 76.07
12/7/2018 16:00 to 15:10 76.54 77.06 76.56 77.12 77.18 76.91
12/7/2018 15:00 to 14:10 76.98 75.78 75.62 75.12 75.04 75.37
12/7/2018 14:00 to 13:10 74.91 76.34 76.71 77.68 77.41 76.44
12/7/2018 13:00 to 12:10 74.50 74.79 75.22 74.85 74.97 75.00
12/7/2018 12:00 to 11:10 74.36 74.81 74.03 75.00 75.20 74.93
12/7/2018 11:00 to 10:10 74.69 74.36 74.65 74.29 74.54 74.79
12/7/2018 10:00 to 9:10 75.84 74.85 75.06 74.64 74.48 75.49
12/7/2018 09:00 to 8:10 75.22 75.20 74.01 73.63 74.79 75.51
12/7/2018 08:00 to 7:10 74.73 74.15 74.31 74.79 74.71 74.21
12/7/2018 07:00 to 6:10 73.47 74.09 73.49 73.08 72.54 72.71
12/7/2018 06:00 to 5:10 72.66 73.55 73.10 72.73 72.75 72.58
12/7/2018 05:00 to 4:10 73.34 72.44 72.81 73.14 73.61 72.23
12/7/2018 04:00 to 3:10 73.02 72.79 73.82 74.38 74.65 73.94
12/7/2018 03:00 to 2:10 73.30 73.90 74.40 74.21 74.34 74.21
12/7/2018 02:00 to 1:10 75.47 75.33 74.89 75.41 75.53 75.16
12/7/2018 01:00 to 0:10 75.55 75.39 75.47 75.55 75.82 75.99